Time;durP1;ratioP1;P1;durP2;ratioP2;P2;SDS_P1;SDS_P2;PMS_P1;PMS_P2;Temp;Humidity;BMP_temperature;BMP_pressure;BME280_temperature;BME280_humidity;BME280_pressure;Samples;Min_cycle;Max_cycle;Signal;HPM_P1;HPM_P2
2023/12/12 00:00:02;;;;;;;0.10;0.10;;;;;;;;;;4939897;28;20046;-90
2023/12/12 00:02:28;;;;;;;0.10;0.10;;;;;;;;;;4955847;28;20045;-88
2023/12/12 00:04:54;;;;;;;0.10;0.10;;;;;;;;;;4940429;28;20038;-90
2023/12/12 00:07:20;;;;;;;0.10;0.10;;;;;;;;;;4939946;28;20045;-90
2023/12/12 00:09:46;;;;;;;0.10;0.10;;;;;;;;;;4939818;28;20050;-88
2023/12/12 00:12:12;;;;;;;0.10;0.10;;;;;;;;;;4940019;28;20557;-90
2023/12/12 00:14:38;;;;;;;0.10;0.10;;;;;;;;;;4939891;28;20042;-89
2023/12/12 00:17:04;;;;;;;0.10;0.10;;;;;;;;;;4955752;28;20090;-90
2023/12/12 00:19:30;;;;;;;0.10;0.10;;;;;;;;;;4955976;28;20094;-88
2023/12/12 00:21:56;;;;;;;0.10;0.10;;;;;;;;;;4955864;28;20545;-90
2023/12/12 00:24:22;;;;;;;0.10;0.10;;;;;;;;;;4939957;28;20047;-90
2023/12/12 00:26:48;;;;;;;0.10;0.10;;;;;;;;;;4940769;28;20047;-88
2023/12/12 00:29:14;;;;;;;0.10;0.10;;;;;;;;;;4943671;28;20038;-88
2023/12/12 00:31:40;;;;;;;0.10;0.10;;;;;;;;;;4943360;28;20046;-90
2023/12/12 00:34:06;;;;;;;0.10;0.10;;;;;;;;;;4943336;28;20046;-88
2023/12/12 00:36:32;;;;;;;0.10;0.10;;;;;;;;;;4943851;28;20117;-89
2023/12/12 00:38:58;;;;;;;0.10;0.10;;;;;;;;;;4943278;28;20050;-91
2023/12/12 00:41:33;;;;;;;0.10;0.10;;;;;;;;;;4943476;28;20062;-89
2023/12/12 00:43:59;;;;;;;0.10;0.10;;;;;;;;;;4943524;28;20066;-89
2023/12/12 00:46:25;;;;;;;0.10;0.10;;;;;;;;;;4943459;28;20459;-89
2023/12/12 00:48:51;;;;;;;0.10;0.10;;;;;;;;;;4943424;28;20050;-89
2023/12/12 00:51:17;;;;;;;0.10;0.10;;;;;;;;;;4959411;28;20046;-88
2023/12/12 00:53:43;;;;;;;0.10;0.10;;;;;;;;;;4959177;28;20053;-89
2023/12/12 00:56:09;;;;;;;0.10;0.10;;;;;;;;;;4959471;28;20343;-88
2023/12/12 00:58:36;;;;;;;0.10;0.10;;;;;;;;;;4943092;28;20126;-88
2023/12/12 01:01:02;;;;;;;0.10;0.10;;;;;;;;;;4958758;28;20074;-90
2023/12/12 01:03:28;;;;;;;0.10;0.10;;;;;;;;;;4943330;28;20081;-88
2023/12/12 01:05:54;;;;;;;0.10;0.10;;;;;;;;;;4942836;28;20034;-90
2023/12/12 01:08:20;;;;;;;0.10;0.10;;;;;;;;;;4943015;28;20041;-89
2023/12/12 01:10:46;;;;;;;0.10;0.10;;;;;;;;;;4958939;28;20390;-90
2023/12/12 01:13:12;;;;;;;0.10;0.10;;;;;;;;;;4942673;28;20034;-90
2023/12/12 01:15:38;;;;;;;0.10;0.10;;;;;;;;;;4942880;28;20105;-88
2023/12/12 01:18:04;;;;;;;0.10;0.10;;;;;;;;;;4942664;28;20479;-89
2023/12/12 01:20:30;;;;;;;0.10;0.10;;;;;;;;;;4942793;28;20098;-89
2023/12/12 01:22:57;;;;;;;0.10;0.10;;;;;;;;;;4958949;28;20400;-89
2023/12/12 01:25:23;;;;;;;0.10;0.10;;;;;;;;;;4958313;28;20043;-90
2023/12/12 01:27:50;;;;;;;0.10;0.10;;;;;;;;;;4958568;28;20514;-92
2023/12/12 01:30:16;;;;;;;0.10;0.10;;;;;;;;;;4974603;28;20051;-90
2023/12/12 01:32:42;;;;;;;0.10;0.10;;;;;;;;;;4942513;28;20050;-91
2023/12/12 01:35:09;;;;;;;0.10;0.10;;;;;;;;;;4942286;28;20047;-89
2023/12/12 01:37:35;;;;;;;0.10;0.10;;;;;;;;;;4958409;28;20042;-90
2023/12/12 01:40:01;;;;;;;0.10;0.10;;;;;;;;;;4941771;28;20039;-90
2023/12/12 01:42:27;;;;;;;0.10;0.10;;;;;;;;;;4942266;28;20051;-88
2023/12/12 01:44:55;;;;;;;0.10;0.10;;;;;;;;;;4942130;28;20138;-90
2023/12/12 01:47:21;;;;;;;0.10;0.10;;;;;;;;;;4958211;28;20039;-88
2023/12/12 01:49:47;;;;;;;0.10;0.10;;;;;;;;;;4941883;28;20097;-89
2023/12/12 01:52:15;;;;;;;0.10;0.10;;;;;;;;;;4942112;28;20054;-92
2023/12/12 01:54:42;;;;;;;0.10;0.10;;;;;;;;;;4941878;28;20047;-92
2023/12/12 01:57:09;;;;;;;0.10;0.10;;;;;;;;;;4941931;28;20043;-90
2023/12/12 01:59:35;;;;;;;0.10;0.10;;;;;;;;;;4942089;28;20043;-91
2023/12/12 02:02:01;;;;;;;0.10;0.10;;;;;;;;;;4941887;28;20510;-89
2023/12/12 02:04:27;;;;;;;0.10;0.10;;;;;;;;;;4957933;28;20038;-90
2023/12/12 02:06:53;;;;;;;0.10;0.10;;;;;;;;;;4941883;28;20049;-89
2023/12/12 02:09:21;;;;;;;0.10;0.10;;;;;;;;;;4942441;28;20055;-90
2023/12/12 02:11:47;;;;;;;0.10;0.10;;;;;;;;;;4941647;28;20097;-90
2023/12/12 02:14:13;;;;;;;0.10;0.10;;;;;;;;;;4941783;28;20049;-90
2023/12/12 02:16:39;;;;;;;0.10;0.10;;;;;;;;;;4941645;28;20121;-90
2023/12/12 02:19:05;;;;;;;0.10;0.10;;;;;;;;;;4957515;28;20105;-88
2023/12/12 02:21:31;;;;;;;0.10;0.10;;;;;;;;;;4941797;28;20055;-89
2023/12/12 02:23:57;;;;;;;0.10;0.10;;;;;;;;;;4941525;28;20557;-89
2023/12/12 02:26:23;;;;;;;0.10;0.10;;;;;;;;;;4941466;28;20053;-89
2023/12/12 02:28:49;;;;;;;0.10;0.10;;;;;;;;;;4941352;28;20046;-90
2023/12/12 02:31:15;;;;;;;0.10;0.10;;;;;;;;;;4957278;28;20042;-89
2023/12/12 02:33:41;;;;;;;0.10;0.10;;;;;;;;;;4957727;28;20134;-89
2023/12/12 02:36:07;;;;;;;0.10;0.10;;;;;;;;;;4941598;28;20042;-90
2023/12/12 02:38:33;;;;;;;0.10;0.10;;;;;;;;;;4957475;28;20090;-88
2023/12/12 02:40:59;;;;;;;0.10;0.10;;;;;;;;;;4940793;28;20061;-89
2023/12/12 02:43:25;;;;;;;0.10;0.10;;;;;;;;;;4941480;28;20039;-89
2023/12/12 02:45:51;;;;;;;0.10;0.10;;;;;;;;;;4941355;28;20061;-90
2023/12/12 02:48:17;;;;;;;0.25;0.25;;;;;;;;;;4941434;28;20047;-90
2023/12/12 02:50:43;;;;;;;0.10;0.10;;;;;;;;;;4940100;28;20038;-90
2023/12/12 02:53:09;;;;;;;0.10;0.10;;;;;;;;;;4941291;28;20045;-90
2023/12/12 02:55:35;;;;;;;0.10;0.10;;;;;;;;;;4956899;28;20098;-92
2023/12/12 02:58:02;;;;;;;0.10;0.10;;;;;;;;;;4941541;28;20538;-91
2023/12/12 03:00:28;;;;;;;0.10;0.10;;;;;;;;;;4957118;28;20089;-91
2023/12/12 03:02:54;;;;;;;0.10;0.10;;;;;;;;;;4956769;28;20550;-90
2023/12/12 03:05:20;;;;;;;0.10;0.10;;;;;;;;;;4941411;28;20463;-92
2023/12/12 03:07:47;;;;;;;0.10;0.10;;;;;;;;;;4940693;28;20047;-90
2023/12/12 03:10:14;;;;;;;0.10;0.10;;;;;;;;;;4956889;28;20109;-91
2023/12/12 03:12:39;;;;;;;0.10;0.10;;;;;;;;;;4941214;28;20043;-91
2023/12/12 03:15:06;;;;;;;0.10;0.10;;;;;;;;;;4940808;28;20439;-90
2023/12/12 03:17:32;;;;;;;0.10;0.10;;;;;;;;;;4940678;28;20041;-89
2023/12/12 03:20:00;;;;;;;0.10;0.10;;;;;;;;;;4940635;28;20129;-90
2023/12/12 03:22:27;;;;;;;0.10;0.10;;;;;;;;;;4956916;28;20065;-91
2023/12/12 03:24:53;;;;;;;0.10;0.10;;;;;;;;;;4940499;28;20133;-89
2023/12/12 03:27:19;;;;;;;0.10;0.10;;;;;;;;;;4956539;28;20117;-89
2023/12/12 03:29:45;;;;;;;0.10;0.10;;;;;;;;;;4940500;28;20051;-90
2023/12/12 03:32:11;;;;;;;0.10;0.10;;;;;;;;;;4940599;28;20043;-89
2023/12/12 03:34:37;;;;;;;0.10;0.10;;;;;;;;;;4956589;28;20042;-89
2023/12/12 03:37:03;;;;;;;0.10;0.10;;;;;;;;;;4940530;28;20049;-88
2023/12/12 03:39:29;;;;;;;0.10;0.10;;;;;;;;;;4940338;28;20030;-90
2023/12/12 03:41:55;;;;;;;0.10;0.10;;;;;;;;;;4940215;28;20430;-90
2023/12/12 03:44:21;;;;;;;0.10;0.10;;;;;;;;;;4940655;28;20101;-90
2023/12/12 03:46:47;;;;;;;0.10;0.10;;;;;;;;;;4940303;28;20113;-89
2023/12/12 03:49:13;;;;;;;0.10;0.10;;;;;;;;;;4940624;28;20047;-89
2023/12/12 03:51:39;;;;;;;0.10;0.10;;;;;;;;;;4940050;28;20534;-90
2023/12/12 03:54:05;;;;;;;0.10;0.10;;;;;;;;;;4940369;28;20133;-88
2023/12/12 03:56:31;;;;;;;0.10;0.10;;;;;;;;;;4940460;28;20082;-89
2023/12/12 03:58:59;;;;;;;0.10;0.10;;;;;;;;;;4940503;28;20045;-89
2023/12/12 04:01:25;;;;;;;0.10;0.10;;;;;;;;;;4956341;28;20042;-87
2023/12/12 04:03:52;;;;;;;0.10;0.10;;;;;;;;;;4960032;28;20039;-90
2023/12/12 04:06:18;;;;;;;0.10;0.10;;;;;;;;;;4943918;28;20526;-88
2023/12/12 04:08:44;;;;;;;0.10;0.10;;;;;;;;;;4960153;28;20406;-89
2023/12/12 04:11:10;;;;;;;0.10;0.10;;;;;;;;;;4944026;28;20043;-89
2023/12/12 04:13:36;;;;;;;0.10;0.10;;;;;;;;;;4943969;28;20050;-89
2023/12/12 04:16:03;;;;;;;0.10;0.10;;;;;;;;;;4943991;28;20129;-90
2023/12/12 04:18:30;;;;;;;0.10;0.10;;;;;;;;;;4960089;28;20046;-91
2023/12/12 04:20:56;;;;;;;0.10;0.10;;;;;;;;;;4944099;28;20081;-90
2023/12/12 04:23:22;;;;;;;0.10;0.10;;;;;;;;;;4943852;28;20074;-91
2023/12/12 04:25:48;;;;;;;0.10;0.10;;;;;;;;;;4943622;28;20045;-90
2023/12/12 04:28:14;;;;;;;0.10;0.10;;;;;;;;;;4943873;28;20048;-91
2023/12/12 04:30:40;;;;;;;0.10;0.10;;;;;;;;;;4943988;28;20129;-89
2023/12/12 04:33:06;;;;;;;0.10;0.10;;;;;;;;;;4943722;28;20049;-88
2023/12/12 04:35:33;;;;;;;0.10;0.10;;;;;;;;;;4943309;28;20073;-90
2023/12/12 04:37:59;;;;;;;0.10;0.10;;;;;;;;;;4959555;28;20039;-90
2023/12/12 04:40:27;;;;;;;0.10;0.10;;;;;;;;;;4943206;28;20047;-89
2023/12/12 04:42:53;;;;;;;0.10;0.10;;;;;;;;;;4943863;28;20042;-91
2023/12/12 04:45:19;;;;;;;0.10;0.10;;;;;;;;;;4943372;28;20039;-89
2023/12/12 04:47:46;;;;;;;0.10;0.10;;;;;;;;;;4943382;28;20043;-91
2023/12/12 04:50:12;;;;;;;0.10;0.10;;;;;;;;;;4959113;28;20043;-90
2023/12/12 04:52:39;;;;;;;0.10;0.10;;;;;;;;;;4943405;28;20132;-90
2023/12/12 04:55:05;;;;;;;0.10;0.10;;;;;;;;;;4959108;28;20038;-90
2023/12/12 04:57:31;;;;;;;0.10;0.10;;;;;;;;;;4959379;28;20039;-91
2023/12/12 04:59:57;;;;;;;0.10;0.10;;;;;;;;;;4942889;28;20475;-89
2023/12/12 05:02:23;;;;;;;0.10;0.10;;;;;;;;;;4943024;28;20042;-90
2023/12/12 05:04:49;;;;;;;0.10;0.10;;;;;;;;;;4942849;28;20407;-89
2023/12/12 05:07:16;;;;;;;0.10;0.10;;;;;;;;;;4942994;28;20050;-89
2023/12/12 05:09:42;;;;;;;0.10;0.10;;;;;;;;;;4943190;28;20054;-90
2023/12/12 05:12:08;;;;;;;0.10;0.10;;;;;;;;;;4960907;28;20503;-90
2023/12/12 05:14:34;;;;;;;0.10;0.10;;;;;;;;;;4941820;28;20081;-89
2023/12/12 05:17:01;;;;;;;0.10;0.10;;;;;;;;;;4942710;28;20510;-88
2023/12/12 05:19:27;;;;;;;0.10;0.10;;;;;;;;;;4942918;28;20073;-89
2023/12/12 05:21:53;;;;;;;0.10;0.10;;;;;;;;;;4958595;28;20125;-90
2023/12/12 05:24:18;;;;;;;0.10;0.10;;;;;;;;;;4942680;28;20137;-89
2023/12/12 05:26:45;;;;;;;0.10;0.10;;;;;;;;;;4942887;28;20043;-90
2023/12/12 05:29:11;;;;;;;0.10;0.10;;;;;;;;;;4942864;28;20159;-88
2023/12/12 05:31:37;;;;;;;0.10;0.10;;;;;;;;;;4942391;28;20507;-89
2023/12/12 05:34:04;;;;;;;0.10;0.10;;;;;;;;;;4958605;28;20406;-89
2023/12/12 05:36:31;;;;;;;0.10;0.10;;;;;;;;;;4942569;28;20038;-89
2023/12/12 05:38:57;;;;;;;0.10;0.10;;;;;;;;;;4942357;28;20077;-89
2023/12/12 05:41:23;;;;;;;0.10;0.10;;;;;;;;;;4942388;28;20055;-88
2023/12/12 05:43:49;;;;;;;0.10;0.10;;;;;;;;;;4958382;28;20131;-89
2023/12/12 05:46:15;;;;;;;0.10;0.10;;;;;;;;;;4942239;28;20043;-89
2023/12/12 05:48:41;;;;;;;0.10;0.10;;;;;;;;;;4942626;28;20133;-89
2023/12/12 05:51:07;;;;;;;0.10;0.10;;;;;;;;;;4942047;28;20462;-91
2023/12/12 05:53:33;;;;;;;0.10;0.10;;;;;;;;;;4941929;28;20039;-90
2023/12/12 05:55:59;;;;;;;0.10;0.10;;;;;;;;;;4957896;28;20126;-90
2023/12/12 05:58:26;;;;;;;0.10;0.10;;;;;;;;;;4942269;28;20530;-89
2023/12/12 06:00:52;;;;;;;0.10;0.10;;;;;;;;;;4957878;28;20045;-89
2023/12/12 06:03:18;;;;;;;0.10;0.10;;;;;;;;;;4942354;28;20035;-89
2023/12/12 06:05:45;;;;;;;0.10;0.10;;;;;;;;;;4958016;28;20069;-89
2023/12/12 06:08:11;;;;;;;0.10;0.10;;;;;;;;;;4958333;28;20046;-90
2023/12/12 06:10:37;;;;;;;0.10;0.10;;;;;;;;;;4942171;28;20043;-90
2023/12/12 06:13:04;;;;;;;0.10;0.10;;;;;;;;;;4942044;28;20039;-90
2023/12/12 06:15:30;;;;;;;0.10;0.10;;;;;;;;;;4941877;28;20049;-91
2023/12/12 06:17:56;;;;;;;0.10;0.10;;;;;;;;;;4941947;28;20038;-91
2023/12/12 06:20:23;;;;;;;0.10;0.10;;;;;;;;;;4941693;28;20053;-89
2023/12/12 06:22:49;;;;;;;0.10;0.10;;;;;;;;;;4941906;28;20038;-92
2023/12/12 06:25:15;;;;;;;0.10;0.10;;;;;;;;;;4941454;28;20098;-91
2023/12/12 06:27:41;;;;;;;0.10;0.10;;;;;;;;;;4941796;28;20038;-90
2023/12/12 06:30:07;;;;;;;0.10;0.10;;;;;;;;;;4941319;28;20046;-90
2023/12/12 06:32:35;;;;;;;0.10;0.10;;;;;;;;;;4942608;28;20487;-90
2023/12/12 06:35:03;;;;;;;0.10;0.10;;;;;;;;;;4941311;28;20488;-90
2023/12/12 06:37:29;;;;;;;0.10;0.10;;;;;;;;;;4957818;28;20047;-90
2023/12/12 06:39:57;;;;;;;0.10;0.10;;;;;;;;;;4941388;28;20035;-90
2023/12/12 06:42:24;;;;;;;0.10;0.10;;;;;;;;;;4941383;28;20058;-90
2023/12/12 06:44:50;;;;;;;0.20;0.20;;;;;;;;;;4941457;28;20406;-89
2023/12/12 06:47:16;;;;;;;0.10;0.10;;;;;;;;;;4957430;28;20077;-90
2023/12/12 06:49:42;;;;;;;0.10;0.10;;;;;;;;;;4956998;28;20051;-90
2023/12/12 06:52:08;;;;;;;0.10;0.10;;;;;;;;;;4941782;28;20045;-89
2023/12/12 06:54:35;;;;;;;0.10;0.10;;;;;;;;;;4941030;28;20046;-90
2023/12/12 06:57:01;;;;;;;0.10;0.10;;;;;;;;;;4941137;28;20039;-90
2023/12/12 06:59:27;;;;;;;0.10;0.10;;;;;;;;;;4956884;28;20534;-89
2023/12/12 07:01:54;;;;;;;0.10;0.10;;;;;;;;;;4941248;28;20039;-88
2023/12/12 07:04:21;;;;;;;0.10;0.10;;;;;;;;;;4957090;28;20121;-88
2023/12/12 07:06:47;;;;;;;0.10;0.10;;;;;;;;;;4956962;28;20479;-90
2023/12/12 07:09:13;;;;;;;0.10;0.10;;;;;;;;;;4940842;28;20049;-89
2023/12/12 07:11:39;;;;;;;0.10;0.10;;;;;;;;;;4956452;28;20078;-89
2023/12/12 07:14:05;;;;;;;0.10;0.10;;;;;;;;;;4941007;28;20423;-89
2023/12/12 07:16:31;;;;;;;0.10;0.10;;;;;;;;;;4940648;28;20039;-89
2023/12/12 07:18:58;;;;;;;0.10;0.10;;;;;;;;;;4940628;28;20081;-89
2023/12/12 07:21:24;;;;;;;0.10;0.10;;;;;;;;;;4940497;28;20125;-89
2023/12/12 07:23:51;;;;;;;0.10;0.10;;;;;;;;;;4940892;28;20042;-90
2023/12/12 07:26:18;;;;;;;0.10;0.10;;;;;;;;;;4940971;28;20054;-91
2023/12/12 07:28:44;;;;;;;0.10;0.10;;;;;;;;;;4941088;28;20069;-91
2023/12/12 07:31:10;;;;;;;0.17;0.17;;;;;;;;;;4940450;28;20486;-92
2023/12/12 07:33:37;;;;;;;0.10;0.10;;;;;;;;;;4940493;28;20050;-92
2023/12/12 07:36:03;;;;;;;0.10;0.10;;;;;;;;;;4939901;28;20039;-91
2023/12/12 07:38:29;;;;;;;0.10;0.10;;;;;;;;;;4940184;28;20077;-91
2023/12/12 07:40:55;;;;;;;0.10;0.10;;;;;;;;;;4940231;28;20117;-89
2023/12/12 07:43:22;;;;;;;0.10;0.10;;;;;;;;;;4940483;28;20482;-90
2023/12/12 07:45:48;;;;;;;0.10;0.10;;;;;;;;;;4956230;28;20050;-89
2023/12/12 07:48:14;;;;;;;0.10;0.10;;;;;;;;;;4956112;28;20048;-89
2023/12/12 07:50:40;;;;;;;0.10;0.10;;;;;;;;;;4940316;28;20403;-90
2023/12/12 07:53:06;;;;;;;0.10;0.10;;;;;;;;;;4956088;28;20082;-90
2023/12/12 07:55:32;;;;;;;0.10;0.10;;;;;;;;;;4956176;28;20070;-89
2023/12/12 07:57:58;;;;;;;0.10;0.10;;;;;;;;;;4942269;28;20435;-89
2023/12/12 08:00:26;;;;;;;0.10;0.10;;;;;;;;;;4940004;28;20043;-88
2023/12/12 08:02:57;;;;;;;0.20;0.20;;;;;;;;;;4959369;28;20039;-95
2023/12/12 08:05:23;;;;;;;0.10;0.10;;;;;;;;;;4976352;28;20046;-90
2023/12/12 08:07:49;;;;;;;0.10;0.10;;;;;;;;;;4959490;28;20053;-89
2023/12/12 08:10:15;;;;;;;0.10;0.10;;;;;;;;;;4971764;28;20042;-90
2023/12/12 08:12:41;;;;;;;0.10;0.10;;;;;;;;;;4975080;28;20482;-89
2023/12/12 08:15:07;;;;;;;0.10;0.10;;;;;;;;;;4958942;28;20133;-90
2023/12/12 08:17:33;;;;;;;0.10;0.10;;;;;;;;;;4959242;28;20486;-92
2023/12/12 08:19:59;;;;;;;0.10;0.10;;;;;;;;;;4941034;28;20070;-92
2023/12/12 08:22:25;;;;;;;0.10;0.10;;;;;;;;;;4940183;28;20053;-91
2023/12/12 08:24:53;;;;;;;0.10;0.10;;;;;;;;;;4940155;28;20113;-91
2023/12/12 08:27:19;;;;;;;0.10;0.10;;;;;;;;;;4940797;28;20050;-89
2023/12/12 08:29:45;;;;;;;0.10;0.10;;;;;;;;;;4939952;28;20046;-90
2023/12/12 08:32:17;;;;;;;0.10;0.10;;;;;;;;;;4939951;28;20053;-92
2023/12/12 08:34:43;;;;;;;0.10;0.10;;;;;;;;;;4956196;28;20050;-91
2023/12/12 08:37:31;;;;;;;0.10;0.10;;;;;;;;;;4940797;28;20031;-94
2023/12/12 08:39:57;;;;;;;0.10;0.10;;;;;;;;;;4973205;28;20450;-92
2023/12/12 08:42:26;;;;;;;0.10;0.10;;;;;;;;;;4959105;28;20104;-91
2023/12/12 08:44:53;;;;;;;0.10;0.10;;;;;;;;;;4990267;28;20052;-89
2023/12/12 08:47:19;;;;;;;0.10;0.10;;;;;;;;;;4959204;28;20486;-90
2023/12/12 08:49:45;;;;;;;0.10;0.10;;;;;;;;;;4962305;28;20042;-90
2023/12/12 08:52:11;;;;;;;0.10;0.10;;;;;;;;;;4962368;28;20050;-90
2023/12/12 08:54:37;;;;;;;0.10;0.10;;;;;;;;;;4977989;28;20125;-91
2023/12/12 08:57:03;;;;;;;0.30;0.30;;;;;;;;;;4962705;28;20144;-91
2023/12/12 09:01:59;;;;;;;0.10;0.10;;;;;;;;;;5014126;28;20129;-92
2023/12/12 09:04:25;;;;;;;0.10;0.10;;;;;;;;;;5009024;28;20049;-90
2023/12/12 09:06:51;;;;;;;0.10;0.10;;;;;;;;;;4987823;28;20053;-89
2023/12/12 09:09:17;;;;;;;0.10;0.10;;;;;;;;;;4965642;28;20045;-91
2023/12/12 09:11:46;;;;;;;0.10;0.10;;;;;;;;;;4962170;28;20049;-90
2023/12/12 09:14:12;;;;;;;0.10;0.10;;;;;;;;;;4986754;28;20045;-90
2023/12/12 09:16:38;;;;;;;0.10;0.10;;;;;;;;;;4987018;28;20402;-91
2023/12/12 09:19:04;;;;;;;0.10;0.10;;;;;;;;;;4985452;28;20041;-91
2023/12/12 09:21:31;;;;;;;0.10;0.10;;;;;;;;;;4997199;28;20049;-90
2023/12/12 09:23:57;;;;;;;0.10;0.10;;;;;;;;;;4996886;28;20073;-89
2023/12/12 09:26:23;;;;;;;0.20;0.20;;;;;;;;;;4997405;28;20081;-90
2023/12/12 09:28:49;;;;;;;0.10;0.10;;;;;;;;;;4978854;28;20038;-91
2023/12/12 09:31:23;;;;;;;0.10;0.10;;;;;;;;;;4961664;28;20096;-92
2023/12/12 09:33:49;;;;;;;0.10;0.10;;;;;;;;;;4961584;28;20050;-91
2023/12/12 09:36:15;;;;;;;0.20;0.20;;;;;;;;;;4961951;28;20181;-91
2023/12/12 09:38:41;;;;;;;0.10;0.10;;;;;;;;;;4961720;28;20030;-91
2023/12/12 09:41:07;;;;;;;0.10;0.10;;;;;;;;;;4977767;28;20049;-90
2023/12/12 09:43:34;;;;;;;0.20;0.20;;;;;;;;;;4977540;28;20038;-91
2023/12/12 09:46:00;;;;;;;0.10;0.10;;;;;;;;;;4977562;28;20043;-90
2023/12/12 09:48:26;;;;;;;1.75;0.20;;;;;;;;;;4977675;28;20045;-89
2023/12/12 09:50:54;;;;;;;0.10;0.10;;;;;;;;;;4977417;28;20049;-89
2023/12/12 09:53:20;;;;;;;0.20;0.20;;;;;;;;;;4977301;28;20463;-89
2023/12/12 09:55:46;;;;;;;0.10;0.10;;;;;;;;;;5012925;28;20046;-89
2023/12/12 09:58:12;;;;;;;0.10;0.10;;;;;;;;;;5012984;28;20499;-89
2023/12/12 10:00:38;;;;;;;0.10;0.10;;;;;;;;;;4992317;28;20056;-89
2023/12/12 10:03:05;;;;;;;0.10;0.10;;;;;;;;;;4977229;28;20049;-93
2023/12/12 10:05:33;;;;;;;0.10;0.10;;;;;;;;;;4977519;28;20192;-92
2023/12/12 10:07:59;;;;;;;0.10;0.10;;;;;;;;;;4977541;28;20053;-89
2023/12/12 10:10:25;;;;;;;0.10;0.10;;;;;;;;;;4977020;28;20042;-90
2023/12/12 10:12:51;;;;;;;0.10;0.10;;;;;;;;;;4977156;28;20112;-90
2023/12/12 10:15:25;;;;;;;0.13;0.13;;;;;;;;;;4976615;28;20101;-89
2023/12/12 10:17:57;;;;;;;0.10;0.10;;;;;;;;;;4977344;28;20098;-90
2023/12/12 10:20:26;;;;;;;0.20;0.20;;;;;;;;;;4976960;28;20364;-89
2023/12/12 10:22:53;;;;;;;0.35;0.20;;;;;;;;;;4976994;28;20073;-89
2023/12/12 10:25:25;;;;;;;0.10;0.10;;;;;;;;;;4976607;28;20081;-94
2023/12/12 10:27:53;;;;;;;0.10;0.10;;;;;;;;;;4993008;28;20057;-89
2023/12/12 10:30:22;;;;;;;0.10;0.10;;;;;;;;;;4992762;28;20048;-89
2023/12/12 10:32:51;;;;;;;0.20;0.20;;;;;;;;;;4973807;28;20185;-89
2023/12/12 10:35:18;;;;;;;0.10;0.10;;;;;;;;;;4941250;28;20132;-90
2023/12/12 10:37:44;;;;;;;0.10;0.10;;;;;;;;;;4957304;28;20046;-90
2023/12/12 10:40:14;;;;;;;0.10;0.10;;;;;;;;;;4957045;28;20043;-89
2023/12/12 10:42:40;;;;;;;0.10;0.10;;;;;;;;;;4957281;28;20296;-90
2023/12/12 10:45:35;;;;;;;0.25;0.25;;;;;;;;;;4957101;28;20039;-90
2023/12/12 10:48:02;;;;;;;0.20;0.20;;;;;;;;;;4955089;28;20061;-90
2023/12/12 10:50:29;;;;;;;0.10;0.10;;;;;;;;;;4957175;28;20569;-90
2023/12/12 10:52:57;;;;;;;0.10;0.10;;;;;;;;;;4973467;28;20046;-90
2023/12/12 10:55:23;;;;;;;0.10;0.10;;;;;;;;;;4973275;28;20137;-89
2023/12/12 10:57:49;;;;;;;0.17;0.17;;;;;;;;;;4957150;28;20049;-89
2023/12/12 11:00:16;;;;;;;0.10;0.10;;;;;;;;;;4956592;28;20051;-89
2023/12/12 11:02:43;;;;;;;0.10;0.10;;;;;;;;;;4956774;28;20055;-91
2023/12/12 11:05:12;;;;;;;0.10;0.10;;;;;;;;;;4958419;28;20042;-88
2023/12/12 11:07:39;;;;;;;0.10;0.10;;;;;;;;;;4956651;28;20101;-89
2023/12/12 11:10:06;;;;;;;0.20;0.20;;;;;;;;;;4956618;28;20097;-87
2023/12/12 11:12:32;;;;;;;0.20;0.20;;;;;;;;;;4955694;28;20129;-87
2023/12/12 11:14:58;;;;;;;0.10;0.10;;;;;;;;;;4956708;28;20134;-90
2023/12/12 11:17:24;;;;;;;0.98;0.28;;;;;;;;;;4956524;28;20035;-90
2023/12/12 11:19:50;;;;;;;0.22;0.22;;;;;;;;;;4956663;28;20046;-88
2023/12/12 11:22:34;;;;;;;0.30;0.30;;;;;;;;;;4956717;28;20501;-89
2023/12/12 11:25:05;;;;;;;2.60;0.82;;;;;;;;;;4956608;28;20043;-89
2023/12/12 11:27:31;;;;;;;0.30;0.30;;;;;;;;;;4957641;28;20085;-90
2023/12/12 11:29:57;;;;;;;0.10;0.10;;;;;;;;;;4957301;28;20039;-90
2023/12/12 11:32:24;;;;;;;0.30;0.30;;;;;;;;;;4957084;28;20045;-89
2023/12/12 11:34:50;;;;;;;0.10;0.10;;;;;;;;;;4940353;28;20243;-90
2023/12/12 11:37:16;;;;;;;0.20;0.20;;;;;;;;;;4956207;28;20038;-89
2023/12/12 11:39:44;;;;;;;0.15;0.15;;;;;;;;;;4956132;28;20049;-90
2023/12/12 11:42:17;;;;;;;0.30;0.30;;;;;;;;;;4972185;28;20047;-90
2023/12/12 11:44:43;;;;;;;1.02;0.50;;;;;;;;;;4956632;28;20057;-90
2023/12/12 11:47:11;;;;;;;0.10;0.10;;;;;;;;;;4955954;28;20045;-89
2023/12/12 11:49:37;;;;;;;0.20;0.20;;;;;;;;;;4955898;28;20046;-88
2023/12/12 11:52:03;;;;;;;0.20;0.20;;;;;;;;;;4955918;28;20387;-88
2023/12/12 11:54:29;;;;;;;0.10;0.10;;;;;;;;;;4955565;28;20120;-90
2023/12/12 11:56:58;;;;;;;0.82;0.55;;;;;;;;;;4956192;28;20047;-88
2023/12/12 11:59:25;;;;;;;0.10;0.10;;;;;;;;;;4956086;28;20039;-88
2023/12/12 12:01:51;;;;;;;2.92;0.77;;;;;;;;;;4970615;28;20326;-89
2023/12/12 12:04:17;;;;;;;1.35;0.20;;;;;;;;;;4972227;28;20459;-89
2023/12/12 12:06:43;;;;;;;0.43;0.43;;;;;;;;;;4972115;28;20047;-89
2023/12/12 12:09:09;;;;;;;0.20;0.20;;;;;;;;;;4972273;28;20407;-89
2023/12/12 12:11:36;;;;;;;0.40;0.40;;;;;;;;;;4971823;28;20050;-89
2023/12/12 12:14:02;;;;;;;0.47;0.30;;;;;;;;;;4971911;28;20053;-88
2023/12/12 12:16:28;;;;;;;0.20;0.20;;;;;;;;;;4972297;28;20046;-89
2023/12/12 12:18:54;;;;;;;4.57;0.65;;;;;;;;;;4971980;28;20071;-89
2023/12/12 12:21:25;;;;;;;0.10;0.10;;;;;;;;;;4971820;28;20483;-89
2023/12/12 12:23:51;;;;;;;1.05;0.30;;;;;;;;;;4974510;28;20439;-89
2023/12/12 12:26:17;;;;;;;0.38;0.38;;;;;;;;;;4975367;28;20034;-88
2023/12/12 12:28:43;;;;;;;0.10;0.10;;;;;;;;;;4975494;28;20039;-88
2023/12/12 12:31:09;;;;;;;0.10;0.10;;;;;;;;;;4975745;28;20097;-88
2023/12/12 12:33:35;;;;;;;0.52;0.25;;;;;;;;;;4975525;28;20097;-88
2023/12/12 12:36:01;;;;;;;0.68;0.68;;;;;;;;;;4975668;28;20038;-89
2023/12/12 12:38:28;;;;;;;0.10;0.10;;;;;;;;;;4975579;28;20039;-92
2023/12/12 12:40:54;;;;;;;0.10;0.10;;;;;;;;;;4975260;28;20046;-89
2023/12/12 12:43:22;;;;;;;0.80;0.38;;;;;;;;;;4975530;28;20039;-89
2023/12/12 12:45:48;;;;;;;0.52;0.52;;;;;;;;;;4975241;28;20039;-89
2023/12/12 12:48:14;;;;;;;0.20;0.20;;;;;;;;;;4975509;28;20508;-89
2023/12/12 12:50:44;;;;;;;0.47;0.30;;;;;;;;;;4975050;28;20518;-89
2023/12/12 12:53:10;;;;;;;0.10;0.10;;;;;;;;;;4975063;28;20475;-87
2023/12/12 12:55:38;;;;;;;0.20;0.20;;;;;;;;;;4974867;28;20047;-90
2023/12/12 12:58:04;;;;;;;0.20;0.20;;;;;;;;;;4975200;28;20046;-88
2023/12/12 13:00:30;;;;;;;0.10;0.10;;;;;;;;;;4975090;28;20061;-90
2023/12/12 13:02:56;;;;;;;0.10;0.10;;;;;;;;;;4959230;28;20039;-90
2023/12/12 13:05:22;;;;;;;0.10;0.10;;;;;;;;;;4959152;28;20466;-90
2023/12/12 13:07:48;;;;;;;0.15;0.15;;;;;;;;;;4959092;28;20039;-89
2023/12/12 13:10:15;;;;;;;0.20;0.20;;;;;;;;;;4959117;28;20054;-89
2023/12/12 13:12:44;;;;;;;0.10;0.10;;;;;;;;;;4958917;28;20043;-93
2023/12/12 13:15:10;;;;;;;0.20;0.20;;;;;;;;;;4959148;28;20039;-91
2023/12/12 13:17:36;;;;;;;0.28;0.28;;;;;;;;;;4958969;28;20134;-90
2023/12/12 13:20:11;;;;;;;0.77;0.77;;;;;;;;;;4958848;28;20043;-92
2023/12/12 13:22:38;;;;;;;0.50;0.50;;;;;;;;;;4959973;28;20038;-91
2023/12/12 13:25:07;;;;;;;0.20;0.20;;;;;;;;;;4958934;28;20093;-91
2023/12/12 13:27:33;;;;;;;0.20;0.20;;;;;;;;;;4959100;28;20057;-91
2023/12/12 13:29:58;;;;;;;0.28;0.28;;;;;;;;;;4958619;28;20047;-89
2023/12/12 13:32:24;;;;;;;0.57;0.57;;;;;;;;;;4958400;28;20046;-89
2023/12/12 13:34:52;;;;;;;0.60;0.22;;;;;;;;;;4957566;28;20173;-90
2023/12/12 13:37:18;;;;;;;0.20;0.20;;;;;;;;;;4958497;28;20054;-89
2023/12/12 13:39:44;;;;;;;0.30;0.30;;;;;;;;;;4958347;28;20443;-90
2023/12/12 13:42:10;;;;;;;0.35;0.35;;;;;;;;;;4958350;28;20407;-89
2023/12/12 13:44:36;;;;;;;0.20;0.20;;;;;;;;;;4958413;28;20039;-90
2023/12/12 13:47:02;;;;;;;0.10;0.10;;;;;;;;;;4958535;28;20051;-90
2023/12/12 13:49:29;;;;;;;0.17;0.17;;;;;;;;;;4958156;28;20043;-88
2023/12/12 13:51:55;;;;;;;0.93;0.43;;;;;;;;;;4958187;28;20666;-88
2023/12/12 13:54:21;;;;;;;1.35;1.25;;;;;;;;;;4958065;28;20505;-88
2023/12/12 13:56:47;;;;;;;0.13;0.13;;;;;;;;;;4958186;28;20035;-88
2023/12/12 13:59:13;;;;;;;0.20;0.20;;;;;;;;;;4958337;28;20039;-89
2023/12/12 14:01:39;;;;;;;0.20;0.20;;;;;;;;;;4971067;28;20108;-89
2023/12/12 14:04:06;;;;;;;0.10;0.10;;;;;;;;;;4969671;28;20130;-89
2023/12/12 14:06:32;;;;;;;0.30;0.30;;;;;;;;;;4939235;29;20047;-90
2023/12/12 14:08:58;;;;;;;0.35;0.35;;;;;;;;;;4949140;28;20506;-89
2023/12/12 14:11:24;;;;;;;1.08;1.08;;;;;;;;;;4973118;28;20038;-90
2023/12/12 14:13:53;;;;;;;0.20;0.20;;;;;;;;;;4941258;28;20038;-90
2023/12/12 14:16:19;;;;;;;0.20;0.20;;;;;;;;;;4973034;28;20503;-89
2023/12/12 14:18:45;;;;;;;0.17;0.17;;;;;;;;;;4941980;28;20045;-89
2023/12/12 14:21:12;;;;;;;0.20;0.20;;;;;;;;;;4973304;28;20031;-89
2023/12/12 14:23:39;;;;;;;0.32;0.32;;;;;;;;;;4948315;28;20038;-89
2023/12/12 14:26:05;;;;;;;0.20;0.20;;;;;;;;;;4977204;28;20046;-91
2023/12/12 14:28:32;;;;;;;0.80;0.40;;;;;;;;;;4976890;28;20481;-91
2023/12/12 14:31:01;;;;;;;0.17;0.17;;;;;;;;;;4976909;28;20046;-88
2023/12/12 14:33:27;;;;;;;0.38;0.38;;;;;;;;;;4992236;28;20069;-91
2023/12/12 14:35:54;;;;;;;0.38;0.35;;;;;;;;;;4976469;28;20073;-91
2023/12/12 14:38:20;;;;;;;0.35;0.35;;;;;;;;;;4979118;28;20078;-90
2023/12/12 14:40:49;;;;;;;1.10;0.55;;;;;;;;;;4961986;28;20046;-90